ZIP16RN EGAC-EGNS
Flight info
| Callsign | ZIP16RN |
|---|---|
| Flight time | 0h 20m |
| Altitude | 7000 |
| Route | DUFFY DCT RINGA L10 IOM |
| Aircraft | DH8D/M-SDE2E3FGRY/H |
Departure
| Time | 2026-04-20 20:28 |
|---|---|
| Airport | George Best Belfast City Airport (EGAC) |
Arrival
| Time | 2026-04-20 20:48 |
|---|---|
| Airport | Isle of Man Airport (EGNS) |
| Time | Latitude | Longitude | Altitude | Speed | Heading |
|---|---|---|---|---|---|
| 2026-04-20 20:02 | 54.61411 | -5.87265 | 13 ft | 0 kts | 125° |
| 2026-04-20 20:21 | 54.61411 | -5.87266 | 12 ft | 1 kts | 125° |
| 2026-04-20 20:21 | 54.61419 | -5.87287 | 12 ft | 2 kts | 125° |
| 2026-04-20 20:22 | 54.61425 | -5.87301 | 12 ft | 2 kts | 125° |
| 2026-04-20 20:22 | 54.61440 | -5.87320 | 13 ft | 2 kts | 174° |
| 2026-04-20 20:22 | 54.61454 | -5.87316 | 13 ft | 1 kts | 213° |
| 2026-04-20 20:22 | 54.61457 | -5.87312 | 13 ft | 0 kts | 216° |
| 2026-04-20 20:25 | 54.61456 | -5.87312 | 12 ft | 0 kts | 216° |
| 2026-04-20 20:25 | 54.61454 | -5.87315 | 13 ft | 0 kts | 216° |
| 2026-04-20 20:25 | 54.61430 | -5.87346 | 12 ft | 8 kts | 220° |
| 2026-04-20 20:25 | 54.61398 | -5.87408 | 12 ft | 7 kts | 231° |
| 2026-04-20 20:26 | 54.61339 | -5.87497 | 12 ft | 17 kts | 214° |
| 2026-04-20 20:26 | 54.61259 | -5.87596 | 11 ft | 5 kts | 226° |
| 2026-04-20 20:26 | 54.61256 | -5.87661 | 11 ft | 6 kts | 299° |
| 2026-04-20 20:26 | 54.61290 | -5.87744 | 12 ft | 13 kts | 304° |
| 2026-04-20 20:27 | 54.61327 | -5.87818 | 12 ft | 6 kts | 349° |
| 2026-04-20 20:27 | 54.61482 | -5.87645 | 13 ft | 68 kts | 35° |
| 2026-04-20 20:27 | 54.62100 | -5.86905 | 14 ft | 141 kts | 34° |
| 2026-04-20 20:27 | 54.62932 | -5.85900 | 542 ft | 146 kts | 36° |
| 2026-04-20 20:28 | 54.63434 | -5.85227 | 1117 ft | 137 kts | 51° |
| 2026-04-20 20:28 | 54.63523 | -5.83324 | 1975 ft | 130 kts | 123° |
| 2026-04-20 20:28 | 54.62682 | -5.82715 | 2368 ft | 150 kts | 175° |
| 2026-04-20 20:28 | 54.61710 | -5.83110 | 3032 ft | 140 kts | 186° |
| 2026-04-20 20:29 | 54.60748 | -5.83596 | 3448 ft | 150 kts | 184° |
| 2026-04-20 20:29 | 54.59775 | -5.83999 | 4116 ft | 139 kts | 185° |
| 2026-04-20 20:29 | 54.58782 | -5.84429 | 4444 ft | 156 kts | 184° |
| 2026-04-20 20:29 | 54.57736 | -5.84862 | 5098 ft | 148 kts | 187° |
| 2026-04-20 20:30 | 54.56667 | -5.85180 | 5364 ft | 170 kts | 175° |
| 2026-04-20 20:30 | 54.55526 | -5.84640 | 5725 ft | 174 kts | 136° |
| 2026-04-20 20:30 | 54.54652 | -5.83145 | 6265 ft | 179 kts | 128° |
| 2026-04-20 20:30 | 54.53781 | -5.81531 | 6673 ft | 194 kts | 128° |
| 2026-04-20 20:31 | 54.52816 | -5.79724 | 6883 ft | 213 kts | 129° |
| 2026-04-20 20:31 | 54.51807 | -5.77843 | 6948 ft | 215 kts | 129° |
| 2026-04-20 20:31 | 54.50782 | -5.75953 | 6977 ft | 219 kts | 129° |
| 2026-04-20 20:31 | 54.49714 | -5.73998 | 6989 ft | 224 kts | 129° |
| 2026-04-20 20:32 | 54.48637 | -5.72037 | 6986 ft | 228 kts | 130° |
| 2026-04-20 20:32 | 54.47537 | -5.70037 | 6988 ft | 231 kts | 130° |
| 2026-04-20 20:32 | 54.46428 | -5.68027 | 6985 ft | 234 kts | 130° |
| 2026-04-20 20:32 | 54.45296 | -5.65982 | 6982 ft | 237 kts | 130° |
| 2026-04-20 20:33 | 54.44151 | -5.63930 | 6979 ft | 239 kts | 133° |
| 2026-04-20 20:33 | 54.42929 | -5.61930 | 6976 ft | 242 kts | 135° |
| 2026-04-20 20:33 | 54.41708 | -5.59923 | 6972 ft | 244 kts | 134° |
| 2026-04-20 20:33 | 54.40497 | -5.57888 | 6972 ft | 246 kts | 134° |
| 2026-04-20 20:34 | 54.39368 | -5.55678 | 6971 ft | 247 kts | 126° |
| 2026-04-20 20:34 | 54.38363 | -5.53281 | 6971 ft | 248 kts | 124° |
| 2026-04-20 20:34 | 54.37380 | -5.50890 | 6967 ft | 249 kts | 124° |
| 2026-04-20 20:34 | 54.36385 | -5.48456 | 6966 ft | 250 kts | 124° |
| 2026-04-20 20:35 | 54.35388 | -5.46014 | 6964 ft | 250 kts | 124° |
| 2026-04-20 20:35 | 54.34383 | -5.43551 | 6964 ft | 251 kts | 124° |
| 2026-04-20 20:35 | 54.33387 | -5.41108 | 6964 ft | 252 kts | 124° |
| 2026-04-20 20:35 | 54.32387 | -5.38656 | 6961 ft | 251 kts | 124° |
| 2026-04-20 20:36 | 54.31385 | -5.36197 | 6958 ft | 249 kts | 124° |
| 2026-04-20 20:36 | 54.30402 | -5.33788 | 6956 ft | 247 kts | 125° |
| 2026-04-20 20:36 | 54.29413 | -5.31368 | 6961 ft | 246 kts | 124° |
| 2026-04-20 20:36 | 54.28436 | -5.28977 | 6960 ft | 246 kts | 124° |
| 2026-04-20 20:37 | 54.27462 | -5.26593 | 6958 ft | 245 kts | 124° |
| 2026-04-20 20:37 | 54.26480 | -5.24197 | 6954 ft | 245 kts | 124° |
| 2026-04-20 20:37 | 54.25512 | -5.21833 | 6956 ft | 245 kts | 124° |
| 2026-04-20 20:37 | 54.24533 | -5.19447 | 6956 ft | 244 kts | 124° |
| 2026-04-20 20:38 | 54.23562 | -5.17080 | 6952 ft | 244 kts | 124° |
| 2026-04-20 20:38 | 54.22592 | -5.14720 | 6956 ft | 244 kts | 124° |
| 2026-04-20 20:38 | 54.21614 | -5.12341 | 6961 ft | 244 kts | 124° |
| 2026-04-20 20:38 | 54.20643 | -5.09981 | 6956 ft | 244 kts | 124° |
| 2026-04-20 20:39 | 54.19677 | -5.07638 | 6962 ft | 243 kts | 124° |
| 2026-04-20 20:39 | 54.18698 | -5.05261 | 6961 ft | 243 kts | 124° |
| 2026-04-20 20:39 | 54.17732 | -5.02918 | 6956 ft | 243 kts | 124° |
| 2026-04-20 20:39 | 54.16756 | -5.00552 | 6949 ft | 244 kts | 125° |
| 2026-04-20 20:40 | 54.15776 | -4.98182 | 6850 ft | 246 kts | 125° |
| 2026-04-20 20:40 | 54.14790 | -4.95793 | 6727 ft | 245 kts | 124° |
| 2026-04-20 20:40 | 54.13806 | -4.93414 | 6595 ft | 244 kts | 125° |
| 2026-04-20 20:40 | 54.12834 | -4.91065 | 6458 ft | 243 kts | 125° |
| 2026-04-20 20:41 | 54.11855 | -4.88702 | 6326 ft | 243 kts | 125° |
| 2026-04-20 20:41 | 54.10887 | -4.86371 | 6197 ft | 242 kts | 125° |
| 2026-04-20 20:41 | 54.09934 | -4.84072 | 6063 ft | 235 kts | 124° |
| 2026-04-20 20:41 | 54.09002 | -4.81821 | 5833 ft | 227 kts | 124° |
| 2026-04-20 20:42 | 54.08100 | -4.79669 | 5488 ft | 226 kts | 126° |
| 2026-04-20 20:42 | 54.06884 | -4.78003 | 4840 ft | 233 kts | 159° |
| 2026-04-20 20:42 | 54.05313 | -4.78023 | 4439 ft | 231 kts | 197° |
| 2026-04-20 20:42 | 54.04033 | -4.79709 | 3716 ft | 245 kts | 233° |
| 2026-04-20 20:43 | 54.03555 | -4.82502 | 2934 ft | 257 kts | 271° |
| 2026-04-20 20:43 | 54.04152 | -4.85196 | 2614 ft | 239 kts | 313° |
| 2026-04-20 20:43 | 54.05461 | -4.86523 | 2466 ft | 207 kts | 356° |
| 2026-04-20 20:43 | 54.06693 | -4.86039 | 2335 ft | 167 kts | 46° |
| 2026-04-20 20:44 | 54.07112 | -4.84488 | 2180 ft | 136 kts | 88° |
| 2026-04-20 20:44 | 54.07121 | -4.82951 | 2004 ft | 130 kts | 95° |
| 2026-04-20 20:44 | 54.06826 | -4.81485 | 1884 ft | 130 kts | 112° |
| 2026-04-20 20:44 | 54.06480 | -4.80130 | 1792 ft | 120 kts | 110° |
| 2026-04-20 20:45 | 54.06437 | -4.78789 | 1708 ft | 113 kts | 76° |
| 2026-04-20 20:45 | 54.06574 | -4.77463 | 1611 ft | 116 kts | 89° |
| 2026-04-20 20:45 | 54.06749 | -4.76086 | 1565 ft | 117 kts | 80° |
| 2026-04-20 20:45 | 54.06890 | -4.74687 | 1592 ft | 123 kts | 83° |
| 2026-04-20 20:46 | 54.07025 | -4.73240 | 1437 ft | 123 kts | 82° |
| 2026-04-20 20:46 | 54.07182 | -4.71851 | 1246 ft | 118 kts | 80° |
| 2026-04-20 20:46 | 54.07326 | -4.70491 | 1058 ft | 115 kts | 82° |
| 2026-04-20 20:46 | 54.07476 | -4.69177 | 877 ft | 113 kts | 79° |
| 2026-04-20 20:47 | 54.07639 | -4.67826 | 731 ft | 117 kts | 79° |
| 2026-04-20 20:47 | 54.07810 | -4.66455 | 522 ft | 119 kts | 77° |
| 2026-04-20 20:47 | 54.07987 | -4.65072 | 329 ft | 120 kts | 77° |
| 2026-04-20 20:47 | 54.08158 | -4.63717 | 107 ft | 116 kts | 76° |
| 2026-04-20 20:48 | 54.08318 | -4.62441 | 41 ft | 97 kts | 77° |
| 2026-04-20 20:48 | 54.08424 | -4.61610 | 41 ft | 43 kts | 78° |
| 2026-04-20 20:48 | 54.08478 | -4.61427 | 43 ft | 9 kts | 3° |
| 2026-04-20 20:48 | 54.08523 | -4.61459 | 46 ft | 5 kts | 309° |
| 2026-04-20 20:49 | 54.08535 | -4.61572 | 46 ft | 16 kts | 276° |
| 2026-04-20 20:49 | 54.08551 | -4.61777 | 47 ft | 15 kts | 275° |
| 2026-04-20 20:49 | 54.08542 | -4.61977 | 46 ft | 20 kts | 258° |
| 2026-04-20 20:49 | 54.08501 | -4.62306 | 48 ft | 31 kts | 257° |
| 2026-04-20 20:50 | 54.08458 | -4.62639 | 49 ft | 26 kts | 258° |
| 2026-04-20 20:50 | 54.08425 | -4.62899 | 53 ft | 16 kts | 258° |
| 2026-04-20 20:50 | 54.08444 | -4.62989 | 55 ft | 10 kts | 347° |
| 2026-04-20 20:50 | 54.08549 | -4.63025 | 60 ft | 16 kts | 346° |
| 2026-04-20 20:51 | 54.08622 | -4.63118 | 63 ft | 12 kts | 314° |
| 2026-04-20 20:51 | 54.08676 | -4.63215 | 66 ft | 6 kts | 315° |
| 2026-04-20 20:51 | 54.08708 | -4.63214 | 67 ft | 4 kts | 38° |
| 2026-04-20 20:51 | 54.08718 | -4.63197 | 67 ft | 1 kts | 45° |
| 2026-04-20 20:52 | 54.08721 | -4.63193 | 67 ft | 0 kts | 45° |
| 2026-04-20 20:52 | 54.08725 | -4.63187 | 67 ft | 0 kts | 45° |